Terminal Aerodrome Forecast
Issued by NWS

Home | Current Version | Previous Version | Text Only | Print | Product List | Glossary On
Versions: 1 2 3 4 5 6 7 8 9 10 11 12
000
FTUS42 KMLB 050538
TAFFPR
TAF
KFPR 050538Z 0506/0606 08011KT P6SM VCSH SCT020 BKN040 BKN250
     FM051400 08016G23KT P6SM VCSH SCT025 BKN040 BKN250
     FM060000 08012KT P6SM VCSH SCT040 BKN250=

USA.gov is the U.S. government's official web portal to all federal, state and local government web resources and services.